sensor_id;sensor_type;location;lat;lon;timestamp;P1;durP1;ratioP1;P2;durP2;ratioP2
45043;SDS011;30784;48.490;9.688;2024-01-11T00:00:41;50.78;;;19.67;;
45043;SDS011;30784;48.490;9.688;2024-01-11T00:03:06;57.17;;;20.35;;
45043;SDS011;30784;48.490;9.688;2024-01-11T00:05:32;53.75;;;19.20;;
45043;SDS011;30784;48.490;9.688;2024-01-11T00:07:58;53.25;;;20.83;;
45043;SDS011;30784;48.490;9.688;2024-01-11T00:10:23;53.83;;;20.73;;
45043;SDS011;30784;48.490;9.688;2024-01-11T00:12:49;53.45;;;19.05;;
45043;SDS011;30784;48.490;9.688;2024-01-11T00:15:14;48.53;;;19.50;;
45043;SDS011;30784;48.490;9.688;2024-01-11T00:17:40;57.20;;;20.77;;
45043;SDS011;30784;48.490;9.688;2024-01-11T00:20:05;85.47;;;33.25;;
45043;SDS011;30784;48.490;9.688;2024-01-11T00:22:31;58.85;;;23.55;;
45043;SDS011;30784;48.490;9.688;2024-01-11T00:24:57;46.90;;;19.85;;
45043;SDS011;30784;48.490;9.688;2024-01-11T00:27:23;39.63;;;17.88;;
45043;SDS011;30784;48.490;9.688;2024-01-11T00:29:48;35.72;;;15.82;;
45043;SDS011;30784;48.490;9.688;2024-01-11T00:32:14;40.30;;;16.73;;
45043;SDS011;30784;48.490;9.688;2024-01-11T00:34:40;39.13;;;16.23;;
45043;SDS011;30784;48.490;9.688;2024-01-11T00:37:05;35.65;;;16.23;;
45043;SDS011;30784;48.490;9.688;2024-01-11T00:39:31;35.60;;;16.52;;
45043;SDS011;30784;48.490;9.688;2024-01-11T00:41:56;35.40;;;15.73;;
45043;SDS011;30784;48.490;9.688;2024-01-11T00:44:22;36.38;;;14.93;;
45043;SDS011;30784;48.490;9.688;2024-01-11T00:46:47;39.78;;;16.90;;
45043;SDS011;30784;48.490;9.688;2024-01-11T00:49:13;37.75;;;15.98;;
45043;SDS011;30784;48.490;9.688;2024-01-11T00:51:38;37.42;;;16.48;;
45043;SDS011;30784;48.490;9.688;2024-01-11T00:54:04;47.67;;;19.92;;
45043;SDS011;30784;48.490;9.688;2024-01-11T00:56:30;55.30;;;26.63;;
45043;SDS011;30784;48.490;9.688;2024-01-11T00:58:55;40.63;;;18.20;;
45043;SDS011;30784;48.490;9.688;2024-01-11T01:01:21;40.83;;;17.27;;
45043;SDS011;30784;48.490;9.688;2024-01-11T01:03:46;36.40;;;17.27;;
45043;SDS011;30784;48.490;9.688;2024-01-11T01:06:12;39.92;;;16.95;;
45043;SDS011;30784;48.490;9.688;2024-01-11T01:08:37;40.78;;;17.38;;
45043;SDS011;30784;48.490;9.688;2024-01-11T01:11:03;38.50;;;16.67;;
45043;SDS011;30784;48.490;9.688;2024-01-11T01:13:28;39.15;;;17.63;;
45043;SDS011;30784;48.490;9.688;2024-01-11T01:15:54;36.80;;;16.15;;
45043;SDS011;30784;48.490;9.688;2024-01-11T01:18:20;38.08;;;16.55;;
45043;SDS011;30784;48.490;9.688;2024-01-11T01:20:45;39.90;;;16.60;;
45043;SDS011;30784;48.490;9.688;2024-01-11T01:23:11;35.90;;;16.60;;
45043;SDS011;30784;48.490;9.688;2024-01-11T01:25:36;34.25;;;15.75;;
45043;SDS011;30784;48.490;9.688;2024-01-11T01:28:02;41.35;;;17.48;;
45043;SDS011;30784;48.490;9.688;2024-01-11T01:30:28;41.05;;;18.90;;
45043;SDS011;30784;48.490;9.688;2024-01-11T01:32:53;40.50;;;17.88;;
45043;SDS011;30784;48.490;9.688;2024-01-11T01:35:19;41.00;;;17.75;;
45043;SDS011;30784;48.490;9.688;2024-01-11T01:37:45;42.10;;;18.40;;
45043;SDS011;30784;48.490;9.688;2024-01-11T01:40:11;38.45;;;16.88;;
45043;SDS011;30784;48.490;9.688;2024-01-11T01:42:42;38.25;;;18.02;;
45043;SDS011;30784;48.490;9.688;2024-01-11T01:45:09;39.85;;;16.73;;
45043;SDS011;30784;48.490;9.688;2024-01-11T01:47:34;37.10;;;16.65;;
45043;SDS011;30784;48.490;9.688;2024-01-11T01:50:00;40.58;;;17.60;;
45043;SDS011;30784;48.490;9.688;2024-01-11T01:52:27;37.47;;;16.60;;
45043;SDS011;30784;48.490;9.688;2024-01-11T01:54:53;39.85;;;17.58;;
45043;SDS011;30784;48.490;9.688;2024-01-11T01:57:19;36.05;;;17.20;;
45043;SDS011;30784;48.490;9.688;2024-01-11T01:59:45;41.33;;;17.25;;
45043;SDS011;30784;48.490;9.688;2024-01-11T02:02:14;38.65;;;17.38;;
45043;SDS011;30784;48.490;9.688;2024-01-11T02:04:40;37.67;;;17.05;;
45043;SDS011;30784;48.490;9.688;2024-01-11T02:07:06;38.00;;;17.92;;
45043;SDS011;30784;48.490;9.688;2024-01-11T02:09:32;39.38;;;17.20;;
45043;SDS011;30784;48.490;9.688;2024-01-11T02:11:58;39.97;;;16.52;;
45043;SDS011;30784;48.490;9.688;2024-01-11T02:14:25;34.53;;;15.68;;
45043;SDS011;30784;48.490;9.688;2024-01-11T02:16:51;33.35;;;15.38;;
45043;SDS011;30784;48.490;9.688;2024-01-11T02:19:17;39.33;;;17.10;;
45043;SDS011;30784;48.490;9.688;2024-01-11T02:21:44;36.88;;;17.25;;
45043;SDS011;30784;48.490;9.688;2024-01-11T02:24:13;40.60;;;17.70;;
45043;SDS011;30784;48.490;9.688;2024-01-11T02:26:58;38.80;;;17.60;;
45043;SDS011;30784;48.490;9.688;2024-01-11T02:29:25;37.20;;;16.67;;
45043;SDS011;30784;48.490;9.688;2024-01-11T02:31:50;35.90;;;16.42;;
45043;SDS011;30784;48.490;9.688;2024-01-11T02:34:16;35.80;;;16.55;;
45043;SDS011;30784;48.490;9.688;2024-01-11T02:36:42;34.75;;;16.08;;
45043;SDS011;30784;48.490;9.688;2024-01-11T02:39:08;36.25;;;15.45;;
45043;SDS011;30784;48.490;9.688;2024-01-11T02:41:35;37.40;;;17.05;;
45043;SDS011;30784;48.490;9.688;2024-01-11T02:44:02;42.15;;;18.17;;
45043;SDS011;30784;48.490;9.688;2024-01-11T02:46:28;41.13;;;18.35;;
45043;SDS011;30784;48.490;9.688;2024-01-11T02:48:53;37.83;;;17.52;;
45043;SDS011;30784;48.490;9.688;2024-01-11T02:51:19;39.22;;;17.73;;
45043;SDS011;30784;48.490;9.688;2024-01-11T02:53:44;37.88;;;16.95;;
45043;SDS011;30784;48.490;9.688;2024-01-11T02:56:10;39.97;;;17.98;;
45043;SDS011;30784;48.490;9.688;2024-01-11T02:58:35;39.63;;;18.98;;
45043;SDS011;30784;48.490;9.688;2024-01-11T03:01:01;38.67;;;17.25;;
45043;SDS011;30784;48.490;9.688;2024-01-11T03:03:26;36.53;;;17.13;;
45043;SDS011;30784;48.490;9.688;2024-01-11T03:05:52;38.63;;;18.25;;
45043;SDS011;30784;48.490;9.688;2024-01-11T03:08:18;41.50;;;18.10;;
45043;SDS011;30784;48.490;9.688;2024-01-11T03:10:43;40.22;;;17.42;;
45043;SDS011;30784;48.490;9.688;2024-01-11T03:13:09;39.83;;;18.10;;
45043;SDS011;30784;48.490;9.688;2024-01-11T03:15:34;39.30;;;18.42;;
45043;SDS011;30784;48.490;9.688;2024-01-11T03:18:00;39.47;;;17.40;;
45043;SDS011;30784;48.490;9.688;2024-01-11T03:20:25;37.97;;;17.27;;
45043;SDS011;30784;48.490;9.688;2024-01-11T03:22:51;42.72;;;18.05;;
45043;SDS011;30784;48.490;9.688;2024-01-11T03:25:17;36.80;;;17.60;;
45043;SDS011;30784;48.490;9.688;2024-01-11T03:27:43;35.25;;;16.50;;
45043;SDS011;30784;48.490;9.688;2024-01-11T03:30:08;36.72;;;17.63;;
45043;SDS011;30784;48.490;9.688;2024-01-11T03:32:34;40.65;;;17.67;;
45043;SDS011;30784;48.490;9.688;2024-01-11T03:35:00;39.75;;;17.73;;
45043;SDS011;30784;48.490;9.688;2024-01-11T03:37:25;42.03;;;17.17;;
45043;SDS011;30784;48.490;9.688;2024-01-11T03:39:51;37.03;;;18.23;;
45043;SDS011;30784;48.490;9.688;2024-01-11T03:42:16;41.97;;;17.20;;
45043;SDS011;30784;48.490;9.688;2024-01-11T03:44:42;35.95;;;17.13;;
45043;SDS011;30784;48.490;9.688;2024-01-11T03:47:07;37.28;;;16.65;;
45043;SDS011;30784;48.490;9.688;2024-01-11T03:49:33;40.50;;;17.95;;
45043;SDS011;30784;48.490;9.688;2024-01-11T03:51:58;37.53;;;17.17;;
45043;SDS011;30784;48.490;9.688;2024-01-11T03:54:24;37.30;;;17.13;;
45043;SDS011;30784;48.490;9.688;2024-01-11T03:56:49;39.45;;;17.92;;
45043;SDS011;30784;48.490;9.688;2024-01-11T03:59:15;39.38;;;17.58;;
45043;SDS011;30784;48.490;9.688;2024-01-11T04:01:41;41.80;;;18.05;;
45043;SDS011;30784;48.490;9.688;2024-01-11T04:04:07;41.50;;;17.38;;
45043;SDS011;30784;48.490;9.688;2024-01-11T04:06:32;44.30;;;18.67;;
45043;SDS011;30784;48.490;9.688;2024-01-11T04:08:58;38.45;;;16.88;;
45043;SDS011;30784;48.490;9.688;2024-01-11T04:11:27;38.28;;;17.58;;
45043;SDS011;30784;48.490;9.688;2024-01-11T04:13:53;39.38;;;17.90;;
45043;SDS011;30784;48.490;9.688;2024-01-11T04:16:18;39.83;;;17.23;;
45043;SDS011;30784;48.490;9.688;2024-01-11T04:18:44;36.47;;;17.73;;
45043;SDS011;30784;48.490;9.688;2024-01-11T04:21:23;41.28;;;18.35;;
45043;SDS011;30784;48.490;9.688;2024-01-11T04:23:49;40.33;;;17.75;;
45043;SDS011;30784;48.490;9.688;2024-01-11T04:26:16;40.08;;;17.75;;
45043;SDS011;30784;48.490;9.688;2024-01-11T04:28:42;40.00;;;17.23;;
45043;SDS011;30784;48.490;9.688;2024-01-11T04:31:09;34.55;;;16.70;;
45043;SDS011;30784;48.490;9.688;2024-01-11T04:33:35;41.42;;;18.73;;
45043;SDS011;30784;48.490;9.688;2024-01-11T04:36:00;43.45;;;19.25;;
45043;SDS011;30784;48.490;9.688;2024-01-11T04:38:26;41.75;;;19.30;;
45043;SDS011;30784;48.490;9.688;2024-01-11T04:40:51;44.92;;;20.15;;
45043;SDS011;30784;48.490;9.688;2024-01-11T04:43:17;41.33;;;18.55;;
45043;SDS011;30784;48.490;9.688;2024-01-11T04:45:42;42.13;;;19.20;;
45043;SDS011;30784;48.490;9.688;2024-01-11T04:48:08;38.85;;;19.70;;
45043;SDS011;30784;48.490;9.688;2024-01-11T04:50:33;43.53;;;18.67;;
45043;SDS011;30784;48.490;9.688;2024-01-11T04:52:59;42.08;;;19.08;;
45043;SDS011;30784;48.490;9.688;2024-01-11T04:55:24;39.83;;;17.95;;
45043;SDS011;30784;48.490;9.688;2024-01-11T04:57:50;40.78;;;17.90;;
45043;SDS011;30784;48.490;9.688;2024-01-11T05:00:15;35.95;;;16.73;;
45043;SDS011;30784;48.490;9.688;2024-01-11T05:02:41;40.50;;;18.13;;
45043;SDS011;30784;48.490;9.688;2024-01-11T05:05:07;43.42;;;19.73;;
45043;SDS011;30784;48.490;9.688;2024-01-11T05:07:32;41.20;;;18.65;;
45043;SDS011;30784;48.490;9.688;2024-01-11T05:09:59;39.30;;;16.83;;
45043;SDS011;30784;48.490;9.688;2024-01-11T05:12:25;44.22;;;19.35;;
45043;SDS011;30784;48.490;9.688;2024-01-11T05:14:50;43.40;;;19.67;;
45043;SDS011;30784;48.490;9.688;2024-01-11T05:17:16;39.92;;;19.08;;
45043;SDS011;30784;48.490;9.688;2024-01-11T05:19:41;40.97;;;18.77;;
45043;SDS011;30784;48.490;9.688;2024-01-11T05:22:07;42.90;;;19.95;;
45043;SDS011;30784;48.490;9.688;2024-01-11T05:24:32;40.55;;;18.33;;
45043;SDS011;30784;48.490;9.688;2024-01-11T05:26:58;42.33;;;18.88;;
45043;SDS011;30784;48.490;9.688;2024-01-11T05:29:24;45.00;;;20.25;;
45043;SDS011;30784;48.490;9.688;2024-01-11T05:31:50;40.13;;;19.15;;
45043;SDS011;30784;48.490;9.688;2024-01-11T05:34:15;38.70;;;18.00;;
45043;SDS011;30784;48.490;9.688;2024-01-11T05:36:41;41.40;;;18.55;;
45043;SDS011;30784;48.490;9.688;2024-01-11T05:39:06;43.40;;;18.38;;
45043;SDS011;30784;48.490;9.688;2024-01-11T05:41:32;40.03;;;18.85;;
45043;SDS011;30784;48.490;9.688;2024-01-11T05:43:57;41.03;;;18.65;;
45043;SDS011;30784;48.490;9.688;2024-01-11T05:46:23;41.47;;;18.70;;
45043;SDS011;30784;48.490;9.688;2024-01-11T05:48:48;40.47;;;18.50;;
45043;SDS011;30784;48.490;9.688;2024-01-11T05:51:14;42.40;;;19.38;;
45043;SDS011;30784;48.490;9.688;2024-01-11T05:53:40;43.38;;;20.67;;
45043;SDS011;30784;48.490;9.688;2024-01-11T05:56:08;47.28;;;20.25;;
45043;SDS011;30784;48.490;9.688;2024-01-11T05:58:35;43.30;;;19.27;;
45043;SDS011;30784;48.490;9.688;2024-01-11T06:01:02;43.03;;;19.58;;
45043;SDS011;30784;48.490;9.688;2024-01-11T06:03:28;41.58;;;19.67;;
45043;SDS011;30784;48.490;9.688;2024-01-11T06:05:54;46.67;;;20.58;;
45043;SDS011;30784;48.490;9.688;2024-01-11T06:08:20;46.58;;;20.30;;
45043;SDS011;30784;48.490;9.688;2024-01-11T06:10:46;45.00;;;19.23;;
45043;SDS011;30784;48.490;9.688;2024-01-11T06:13:11;41.25;;;18.90;;
45043;SDS011;30784;48.490;9.688;2024-01-11T06:15:37;44.00;;;20.08;;
45043;SDS011;30784;48.490;9.688;2024-01-11T06:18:02;45.30;;;19.98;;
45043;SDS011;30784;48.490;9.688;2024-01-11T06:20:29;44.50;;;20.33;;
45043;SDS011;30784;48.490;9.688;2024-01-11T06:22:55;45.45;;;21.90;;
45043;SDS011;30784;48.490;9.688;2024-01-11T06:25:20;43.03;;;18.83;;
45043;SDS011;30784;48.490;9.688;2024-01-11T06:27:46;43.50;;;19.50;;
45043;SDS011;30784;48.490;9.688;2024-01-11T06:30:12;42.05;;;20.45;;
45043;SDS011;30784;48.490;9.688;2024-01-11T06:32:38;46.63;;;20.25;;
45043;SDS011;30784;48.490;9.688;2024-01-11T06:35:03;43.08;;;19.90;;
45043;SDS011;30784;48.490;9.688;2024-01-11T06:37:30;43.40;;;20.05;;
45043;SDS011;30784;48.490;9.688;2024-01-11T06:39:55;42.72;;;19.35;;
45043;SDS011;30784;48.490;9.688;2024-01-11T06:42:21;42.15;;;19.70;;
45043;SDS011;30784;48.490;9.688;2024-01-11T06:44:47;43.63;;;19.02;;
45043;SDS011;30784;48.490;9.688;2024-01-11T06:47:13;44.35;;;18.52;;
45043;SDS011;30784;48.490;9.688;2024-01-11T06:49:41;40.78;;;18.70;;
45043;SDS011;30784;48.490;9.688;2024-01-11T06:52:06;43.85;;;19.63;;
45043;SDS011;30784;48.490;9.688;2024-01-11T06:54:32;43.65;;;20.17;;
45043;SDS011;30784;48.490;9.688;2024-01-11T06:56:58;42.45;;;18.98;;
45043;SDS011;30784;48.490;9.688;2024-01-11T06:59:23;47.17;;;21.83;;
45043;SDS011;30784;48.490;9.688;2024-01-11T07:01:49;48.40;;;21.55;;
45043;SDS011;30784;48.490;9.688;2024-01-11T07:04:14;48.00;;;21.20;;
45043;SDS011;30784;48.490;9.688;2024-01-11T07:06:40;42.70;;;20.58;;
45043;SDS011;30784;48.490;9.688;2024-01-11T07:09:06;48.03;;;22.58;;
45043;SDS011;30784;48.490;9.688;2024-01-11T07:11:31;49.80;;;21.35;;
45043;SDS011;30784;48.490;9.688;2024-01-11T07:13:57;53.08;;;21.67;;
45043;SDS011;30784;48.490;9.688;2024-01-11T07:16:23;43.35;;;20.17;;
45043;SDS011;30784;48.490;9.688;2024-01-11T07:18:48;52.03;;;23.30;;
45043;SDS011;30784;48.490;9.688;2024-01-11T07:21:20;49.70;;;24.08;;
45043;SDS011;30784;48.490;9.688;2024-01-11T07:23:56;50.15;;;21.88;;
45043;SDS011;30784;48.490;9.688;2024-01-11T07:26:25;46.45;;;21.10;;
45043;SDS011;30784;48.490;9.688;2024-01-11T07:28:51;45.67;;;20.27;;
45043;SDS011;30784;48.490;9.688;2024-01-11T07:31:16;47.75;;;21.15;;
45043;SDS011;30784;48.490;9.688;2024-01-11T07:33:42;46.53;;;21.48;;
45043;SDS011;30784;48.490;9.688;2024-01-11T07:36:08;45.00;;;21.40;;
45043;SDS011;30784;48.490;9.688;2024-01-11T07:38:34;49.30;;;23.05;;
45043;SDS011;30784;48.490;9.688;2024-01-11T07:41:00;53.38;;;24.27;;
45043;SDS011;30784;48.490;9.688;2024-01-11T07:43:26;55.08;;;24.80;;
45043;SDS011;30784;48.490;9.688;2024-01-11T07:45:53;46.67;;;22.20;;
45043;SDS011;30784;48.490;9.688;2024-01-11T07:48:21;47.10;;;20.90;;
45043;SDS011;30784;48.490;9.688;2024-01-11T07:50:47;48.03;;;22.27;;
45043;SDS011;30784;48.490;9.688;2024-01-11T07:53:13;49.47;;;22.15;;
45043;SDS011;30784;48.490;9.688;2024-01-11T07:55:39;53.70;;;23.00;;
45043;SDS011;30784;48.490;9.688;2024-01-11T07:58:05;51.00;;;22.98;;
45043;SDS011;30784;48.490;9.688;2024-01-11T08:00:31;50.20;;;23.67;;
45043;SDS011;30784;48.490;9.688;2024-01-11T08:02:56;48.47;;;21.65;;
45043;SDS011;30784;48.490;9.688;2024-01-11T08:05:22;44.67;;;21.17;;
45043;SDS011;30784;48.490;9.688;2024-01-11T08:07:47;46.42;;;21.75;;
45043;SDS011;30784;48.490;9.688;2024-01-11T08:10:13;48.47;;;21.40;;
45043;SDS011;30784;48.490;9.688;2024-01-11T08:12:38;46.35;;;22.45;;
45043;SDS011;30784;48.490;9.688;2024-01-11T08:15:04;53.33;;;24.20;;
45043;SDS011;30784;48.490;9.688;2024-01-11T08:17:30;51.05;;;23.65;;
45043;SDS011;30784;48.490;9.688;2024-01-11T08:19:55;51.28;;;23.42;;
45043;SDS011;30784;48.490;9.688;2024-01-11T08:22:21;51.85;;;24.70;;
45043;SDS011;30784;48.490;9.688;2024-01-11T08:24:47;51.50;;;24.63;;
45043;SDS011;30784;48.490;9.688;2024-01-11T08:27:13;48.30;;;23.58;;
45043;SDS011;30784;48.490;9.688;2024-01-11T08:29:42;48.57;;;22.83;;
45043;SDS011;30784;48.490;9.688;2024-01-11T08:32:08;53.88;;;23.10;;
45043;SDS011;30784;48.490;9.688;2024-01-11T08:34:33;50.33;;;24.23;;
45043;SDS011;30784;48.490;9.688;2024-01-11T08:36:59;55.58;;;25.13;;
45043;SDS011;30784;48.490;9.688;2024-01-11T08:39:24;58.13;;;28.83;;
45043;SDS011;30784;48.490;9.688;2024-01-11T08:41:50;53.28;;;27.88;;
45043;SDS011;30784;48.490;9.688;2024-01-11T08:44:16;52.53;;;26.08;;
45043;SDS011;30784;48.490;9.688;2024-01-11T08:46:43;52.22;;;25.80;;
45043;SDS011;30784;48.490;9.688;2024-01-11T08:49:09;47.53;;;24.55;;
45043;SDS011;30784;48.490;9.688;2024-01-11T08:51:34;53.58;;;25.65;;
45043;SDS011;30784;48.490;9.688;2024-01-11T08:54:00;47.22;;;24.60;;
45043;SDS011;30784;48.490;9.688;2024-01-11T08:56:26;52.20;;;24.58;;
45043;SDS011;30784;48.490;9.688;2024-01-11T08:58:52;49.47;;;24.60;;
45043;SDS011;30784;48.490;9.688;2024-01-11T09:01:18;47.78;;;24.02;;
45043;SDS011;30784;48.490;9.688;2024-01-11T09:03:44;45.70;;;22.90;;
45043;SDS011;30784;48.490;9.688;2024-01-11T09:06:09;45.00;;;24.08;;
45043;SDS011;30784;48.490;9.688;2024-01-11T09:08:36;49.20;;;25.52;;
45043;SDS011;30784;48.490;9.688;2024-01-11T09:11:01;54.20;;;26.08;;
45043;SDS011;30784;48.490;9.688;2024-01-11T09:13:28;49.25;;;24.45;;
45043;SDS011;30784;48.490;9.688;2024-01-11T09:15:53;50.75;;;26.15;;
45043;SDS011;30784;48.490;9.688;2024-01-11T09:18:20;46.97;;;24.23;;
45043;SDS011;30784;48.490;9.688;2024-01-11T09:20:45;50.90;;;26.17;;
45043;SDS011;30784;48.490;9.688;2024-01-11T09:23:12;46.22;;;24.73;;
45043;SDS011;30784;48.490;9.688;2024-01-11T09:25:38;48.97;;;25.17;;
45043;SDS011;30784;48.490;9.688;2024-01-11T09:28:03;48.60;;;26.10;;
45043;SDS011;30784;48.490;9.688;2024-01-11T09:30:29;51.00;;;26.40;;
45043;SDS011;30784;48.490;9.688;2024-01-11T09:32:55;51.60;;;26.35;;
45043;SDS011;30784;48.490;9.688;2024-01-11T09:35:21;50.88;;;25.70;;
45043;SDS011;30784;48.490;9.688;2024-01-11T09:37:48;49.15;;;24.40;;
45043;SDS011;30784;48.490;9.688;2024-01-11T09:40:14;45.78;;;24.92;;
45043;SDS011;30784;48.490;9.688;2024-01-11T09:42:40;46.80;;;23.75;;
45043;SDS011;30784;48.490;9.688;2024-01-11T09:45:07;47.60;;;24.33;;
45043;SDS011;30784;48.490;9.688;2024-01-11T09:47:35;45.30;;;24.42;;
45043;SDS011;30784;48.490;9.688;2024-01-11T09:50:02;44.65;;;24.73;;
45043;SDS011;30784;48.490;9.688;2024-01-11T09:52:28;50.92;;;25.92;;
45043;SDS011;30784;48.490;9.688;2024-01-11T09:54:57;49.55;;;26.08;;
45043;SDS011;30784;48.490;9.688;2024-01-11T09:57:29;42.30;;;22.75;;
45043;SDS011;30784;48.490;9.688;2024-01-11T09:59:56;41.35;;;21.77;;
45043;SDS011;30784;48.490;9.688;2024-01-11T10:02:24;39.33;;;22.08;;
45043;SDS011;30784;48.490;9.688;2024-01-11T10:04:51;40.47;;;21.23;;
45043;SDS011;30784;48.490;9.688;2024-01-11T10:07:18;40.90;;;21.90;;
45043;SDS011;30784;48.490;9.688;2024-01-11T10:12:13;38.33;;;21.40;;
45043;SDS011;30784;48.490;9.688;2024-01-11T10:14:38;37.97;;;21.02;;
45043;SDS011;30784;48.490;9.688;2024-01-11T10:17:04;40.28;;;20.92;;
45043;SDS011;30784;48.490;9.688;2024-01-11T10:19:30;42.03;;;21.75;;
45043;SDS011;30784;48.490;9.688;2024-01-11T10:21:56;40.22;;;21.80;;
45043;SDS011;30784;48.490;9.688;2024-01-11T10:24:23;42.03;;;22.55;;
45043;SDS011;30784;48.490;9.688;2024-01-11T10:26:51;36.95;;;20.88;;
45043;SDS011;30784;48.490;9.688;2024-01-11T10:29:30;36.45;;;20.45;;
45043;SDS011;30784;48.490;9.688;2024-01-11T10:31:56;39.95;;;20.90;;
45043;SDS011;30784;48.490;9.688;2024-01-11T10:34:23;38.28;;;21.20;;
45043;SDS011;30784;48.490;9.688;2024-01-11T10:36:48;37.05;;;19.63;;
45043;SDS011;30784;48.490;9.688;2024-01-11T10:39:15;37.97;;;20.98;;
45043;SDS011;30784;48.490;9.688;2024-01-11T10:41:44;40.97;;;21.35;;
45043;SDS011;30784;48.490;9.688;2024-01-11T10:44:17;39.35;;;21.65;;
45043;SDS011;30784;48.490;9.688;2024-01-11T10:46:45;38.33;;;21.08;;
45043;SDS011;30784;48.490;9.688;2024-01-11T10:49:17;37.17;;;20.38;;
45043;SDS011;30784;48.490;9.688;2024-01-11T10:51:44;35.28;;;20.00;;
45043;SDS011;30784;48.490;9.688;2024-01-11T10:54:17;36.72;;;20.10;;
45043;SDS011;30784;48.490;9.688;2024-01-11T10:56:45;37.88;;;21.10;;
45043;SDS011;30784;48.490;9.688;2024-01-11T10:59:12;39.97;;;22.00;;
45043;SDS011;30784;48.490;9.688;2024-01-11T11:01:39;41.15;;;21.10;;
45043;SDS011;30784;48.490;9.688;2024-01-11T11:04:04;38.83;;;20.25;;
45043;SDS011;30784;48.490;9.688;2024-01-11T11:06:32;36.00;;;20.85;;
45043;SDS011;30784;48.490;9.688;2024-01-11T11:09:00;39.13;;;21.13;;
45043;SDS011;30784;48.490;9.688;2024-01-11T11:11:28;36.60;;;20.23;;
45043;SDS011;30784;48.490;9.688;2024-01-11T11:13:55;36.17;;;19.38;;
45043;SDS011;30784;48.490;9.688;2024-01-11T11:16:26;36.50;;;20.17;;
45043;SDS011;30784;48.490;9.688;2024-01-11T11:18:53;31.25;;;18.08;;
45043;SDS011;30784;48.490;9.688;2024-01-11T11:21:19;35.70;;;18.95;;
45043;SDS011;30784;48.490;9.688;2024-01-11T11:23:46;32.47;;;18.83;;
45043;SDS011;30784;48.490;9.688;2024-01-11T11:26:15;33.55;;;19.23;;
45043;SDS011;30784;48.490;9.688;2024-01-11T11:31:08;34.40;;;18.80;;
45043;SDS011;30784;48.490;9.688;2024-01-11T11:33:36;40.22;;;21.13;;
45043;SDS011;30784;48.490;9.688;2024-01-11T11:36:02;35.25;;;19.55;;
45043;SDS011;30784;48.490;9.688;2024-01-11T11:38:29;33.53;;;18.73;;
45043;SDS011;30784;48.490;9.688;2024-01-11T11:41:00;35.13;;;20.10;;
45043;SDS011;30784;48.490;9.688;2024-01-11T11:43:26;33.85;;;19.75;;
45043;SDS011;30784;48.490;9.688;2024-01-11T11:45:53;34.75;;;19.73;;
45043;SDS011;30784;48.490;9.688;2024-01-11T11:53:35;35.15;;;19.65;;
45043;SDS011;30784;48.490;9.688;2024-01-11T11:56:01;31.27;;;18.50;;
45043;SDS011;30784;48.490;9.688;2024-01-11T11:58:28;34.63;;;19.80;;
45043;SDS011;30784;48.490;9.688;2024-01-11T12:00:54;32.05;;;18.50;;
45043;SDS011;30784;48.490;9.688;2024-01-11T12:03:23;32.05;;;18.05;;
45043;SDS011;30784;48.490;9.688;2024-01-11T12:06:13;31.48;;;18.45;;
45043;SDS011;30784;48.490;9.688;2024-01-11T12:08:41;31.13;;;17.50;;
45043;SDS011;30784;48.490;9.688;2024-01-11T12:11:20;32.65;;;18.30;;
45043;SDS011;30784;48.490;9.688;2024-01-11T12:13:47;28.98;;;16.85;;
45043;SDS011;30784;48.490;9.688;2024-01-11T12:16:13;28.15;;;16.40;;
45043;SDS011;30784;48.490;9.688;2024-01-11T12:18:39;32.63;;;17.92;;
45043;SDS011;30784;48.490;9.688;2024-01-11T12:21:06;28.45;;;16.90;;
45043;SDS011;30784;48.490;9.688;2024-01-11T12:23:32;25.95;;;15.43;;
45043;SDS011;30784;48.490;9.688;2024-01-11T12:26:03;30.80;;;16.77;;
45043;SDS011;30784;48.490;9.688;2024-01-11T12:28:32;30.73;;;17.60;;
45043;SDS011;30784;48.490;9.688;2024-01-11T12:30:58;33.05;;;18.20;;
45043;SDS011;30784;48.490;9.688;2024-01-11T12:33:24;27.20;;;16.25;;
45043;SDS011;30784;48.490;9.688;2024-01-11T12:35:51;33.80;;;17.25;;
45043;SDS011;30784;48.490;9.688;2024-01-11T12:38:17;30.17;;;17.60;;
45043;SDS011;30784;48.490;9.688;2024-01-11T12:40:43;30.92;;;17.95;;
45043;SDS011;30784;48.490;9.688;2024-01-11T12:43:11;35.55;;;18.73;;
45043;SDS011;30784;48.490;9.688;2024-01-11T12:45:37;29.70;;;17.10;;
45043;SDS011;30784;48.490;9.688;2024-01-11T12:48:06;31.13;;;17.17;;
45043;SDS011;30784;48.490;9.688;2024-01-11T12:50:33;28.08;;;16.63;;
45043;SDS011;30784;48.490;9.688;2024-01-11T12:53:15;27.48;;;16.80;;
45043;SDS011;30784;48.490;9.688;2024-01-11T12:55:46;29.88;;;18.17;;
45043;SDS011;30784;48.490;9.688;2024-01-11T12:58:12;35.15;;;20.30;;
45043;SDS011;30784;48.490;9.688;2024-01-11T13:00:39;34.38;;;18.10;;
45043;SDS011;30784;48.490;9.688;2024-01-11T13:03:05;31.02;;;17.20;;
45043;SDS011;30784;48.490;9.688;2024-01-11T13:05:31;32.00;;;17.17;;
45043;SDS011;30784;48.490;9.688;2024-01-11T13:08:07;29.07;;;16.37;;
45043;SDS011;30784;48.490;9.688;2024-01-11T13:10:33;27.30;;;16.08;;
45043;SDS011;30784;48.490;9.688;2024-01-11T13:13:00;28.27;;;16.17;;
45043;SDS011;30784;48.490;9.688;2024-01-11T13:15:27;29.98;;;17.45;;
45043;SDS011;30784;48.490;9.688;2024-01-11T13:17:54;36.88;;;21.42;;
45043;SDS011;30784;48.490;9.688;2024-01-11T13:20:20;37.33;;;21.88;;
45043;SDS011;30784;48.490;9.688;2024-01-11T13:22:46;32.92;;;19.60;;
45043;SDS011;30784;48.490;9.688;2024-01-11T13:25:12;48.42;;;27.02;;
45043;SDS011;30784;48.490;9.688;2024-01-11T13:27:37;40.17;;;21.65;;
45043;SDS011;30784;48.490;9.688;2024-01-11T13:30:03;32.38;;;18.65;;
45043;SDS011;30784;48.490;9.688;2024-01-11T13:32:30;30.92;;;17.65;;
45043;SDS011;30784;48.490;9.688;2024-01-11T13:34:56;32.08;;;18.70;;
45043;SDS011;30784;48.490;9.688;2024-01-11T13:37:22;35.55;;;19.70;;
45043;SDS011;30784;48.490;9.688;2024-01-11T13:39:48;39.85;;;24.27;;
45043;SDS011;30784;48.490;9.688;2024-01-11T13:42:13;41.47;;;23.65;;
45043;SDS011;30784;48.490;9.688;2024-01-11T13:44:39;37.28;;;21.83;;
45043;SDS011;30784;48.490;9.688;2024-01-11T13:47:04;34.13;;;21.42;;
45043;SDS011;30784;48.490;9.688;2024-01-11T13:49:30;29.33;;;18.30;;
45043;SDS011;30784;48.490;9.688;2024-01-11T13:51:56;31.75;;;17.80;;
45043;SDS011;30784;48.490;9.688;2024-01-11T13:54:22;32.65;;;17.70;;
45043;SDS011;30784;48.490;9.688;2024-01-11T13:56:47;28.58;;;16.95;;
45043;SDS011;30784;48.490;9.688;2024-01-11T13:59:13;33.17;;;18.63;;
45043;SDS011;30784;48.490;9.688;2024-01-11T14:01:39;32.78;;;16.95;;
45043;SDS011;30784;48.490;9.688;2024-01-11T14:04:05;28.27;;;15.88;;
45043;SDS011;30784;48.490;9.688;2024-01-11T14:06:30;31.30;;;17.17;;
45043;SDS011;30784;48.490;9.688;2024-01-11T14:08:56;29.25;;;16.98;;
45043;SDS011;30784;48.490;9.688;2024-01-11T14:11:21;32.55;;;18.77;;
45043;SDS011;30784;48.490;9.688;2024-01-11T14:13:47;31.92;;;19.30;;
45043;SDS011;30784;48.490;9.688;2024-01-11T14:16:13;31.73;;;17.17;;
45043;SDS011;30784;48.490;9.688;2024-01-11T14:18:40;29.35;;;17.20;;
45043;SDS011;30784;48.490;9.688;2024-01-11T14:21:06;27.52;;;16.25;;
45043;SDS011;30784;48.490;9.688;2024-01-11T14:23:31;30.92;;;16.48;;
45043;SDS011;30784;48.490;9.688;2024-01-11T14:25:57;30.00;;;17.10;;